PWSweather.com
Personal Weather Stations
Station Observations
W7JKG
Phoenix, AZ 85032-2083

Phoenix, AZ 85032-2083

Lat: 33.645544, Lon: -112.007099

Elevation: 1474

Station Type: Davis Vantage Pro2 Wireless

http://tiggrweather.net/

High Low Average
Temperature 55.4°F13.0°C 42.0°F5.6°C 49.0°F9.4°C
Dew Point 39.8°F4.3°C 22.1°F-5.5°C 33.3°F0.7°C
Winds 5.8 mph 9.3 kmh Calm Calm 2.0 mph WSW3.2 kmh WSW
Wind Gusts 10.4 mph16.7 kmh -- 4.0 mph6.4 kmh
Humidity 80% 29% 57%
Pressure 30.12 in1020.0 mb 30.03 in1016.9 mb -
Precipitation 0.04 in1.0 mm - -
Hour Temp Dew Point Humidity Winds Wind Gusts Pressure Precip Precip Rate Daily Precip Total
12:00 AM 50.9°F10.5°C 30.8°F-0.7°C 46% 1.2 mph SSE1.9 kmh SSE 2.3 mph3.7 kmh 30.07 in1018.3 mb - 0.00 in0.0 mm 0.00 in0.0 mm
01:00 AM 51.2°F10.7°C 31.6°F-0.2°C 47% 2.3 mph SSW3.7 kmh SSW 6.9 mph11.1 kmh 30.06 in1017.9 mb - 0.00 in0.0 mm 0.00 in0.0 mm
02:00 AM 50.2°F10.1°C 34.6°F1.4°C 55% 1.2 mph SW1.9 kmh SW 3.5 mph5.6 kmh 30.07 in1018.3 mb - 0.00 in0.0 mm 0.00 in0.0 mm
03:00 AM 49.1°F9.5°C 35.8°F2.1°C 60% 2.3 mph NW3.7 kmh NW 3.5 mph5.6 kmh 30.06 in1017.9 mb - 0.00 in0.0 mm 0.00 in0.0 mm
04:00 AM 45.8°F7.7°C 37.6°F3.1°C 73% 4.6 mph WNW7.4 kmh WNW 5.8 mph9.3 kmh 30.07 in1018.3 mb - 0.01 in0.3 mm 0.01 in0.3 mm
05:00 AM 44.6°F7.0°C 38.5°F3.6°C 79% 1.2 mph SW1.9 kmh SW 3.5 mph5.6 kmh 30.07 in1018.3 mb - 0.03 in0.8 mm 0.04 in1.0 mm
06:00 AM 45.2°F7.3°C 39.1°F3.9°C 79% 3.5 mph S5.6 kmh S 6.9 mph11.1 kmh 30.07 in1018.3 mb - 0.00 in0.0 mm 0.04 in1.0 mm
07:00 AM 45.4°F7.4°C 39.3°F4.1°C 79% Calm Calm 3.5 mph5.6 kmh 30.08 in1018.6 mb - 0.00 in0.0 mm 0.04 in1.0 mm
08:00 AM 45.6°F7.6°C 39.8°F4.3°C 80% Calm Calm 1.2 mph1.9 kmh 30.09 in1019.0 mb - 0.00 in0.0 mm 0.04 in1.0 mm
09:00 AM 46.6°F8.1°C 39.7°F4.3°C 77% 2.3 mph S3.7 kmh S 3.5 mph5.6 kmh 30.12 in1020.0 mb - 0.00 in0.0 mm 0.04 in1.0 mm
10:00 AM 47.6°F8.7°C 39.0°F3.9°C 72% Calm Calm 1.2 mph1.9 kmh 30.12 in1020.0 mb - 0.00 in0.0 mm 0.04 in1.0 mm
11:00 AM 50.3°F10.2°C 38.6°F3.7°C 64% 4.6 mph SSW7.4 kmh SSW 10.4 mph16.7 kmh 30.12 in1020.0 mb - 0.00 in0.0 mm 0.04 in1.0 mm
12:00 PM 50.1°F10.1°C 35.4°F1.9°C 57% 4.6 mph SSW7.4 kmh SSW 6.9 mph11.1 kmh 30.12 in1020.0 mb - 0.00 in0.0 mm 0.04 in1.0 mm
01:00 PM 51.0°F10.6°C 34.9°F1.6°C 54% 5.8 mph S9.3 kmh S 6.9 mph11.1 kmh 30.10 in1019.3 mb - 0.00 in0.0 mm 0.04 in1.0 mm
02:00 PM 53.4°F11.9°C 32.6°F0.3°C 45% 3.5 mph SSE5.6 kmh SSE 4.6 mph7.4 kmh 30.07 in1018.3 mb - 0.00 in0.0 mm 0.04 in1.0 mm
03:00 PM 54.8°F12.7°C 29.0°F-1.7°C 37% 4.6 mph S7.4 kmh S 5.8 mph9.3 kmh 30.05 in1017.6 mb - 0.00 in0.0 mm 0.04 in1.0 mm
04:00 PM 55.0°F12.8°C 27.1°F-2.7°C 34% 1.2 mph W1.9 kmh W 3.5 mph5.6 kmh 30.04 in1017.3 mb - 0.00 in0.0 mm 0.04 in1.0 mm
05:00 PM 55.4°F13.0°C 24.4°F-4.2°C 30% 4.6 mph W7.4 kmh W 5.8 mph9.3 kmh 30.03 in1016.9 mb - 0.00 in0.0 mm 0.04 in1.0 mm
06:00 PM 53.6°F12.0°C 22.1°F-5.5°C 29% 3.5 mph W5.6 kmh W 5.8 mph9.3 kmh 30.04 in1017.3 mb - 0.00 in0.0 mm 0.04 in1.0 mm
07:00 PM 50.1°F10.1°C 27.9°F-2.3°C 42% 1.2 mph NW1.9 kmh NW 3.5 mph5.6 kmh 30.05 in1017.6 mb - 0.00 in0.0 mm 0.04 in1.0 mm
08:00 PM 47.8°F8.8°C 29.0°F-1.7°C 48% 1.2 mph NW1.9 kmh NW 2.3 mph3.7 kmh 30.06 in1017.9 mb - 0.00 in0.0 mm 0.04 in1.0 mm
09:00 PM 45.9°F7.7°C 30.6°F-0.8°C 55% Calm Calm -- 30.07 in1018.3 mb - 0.00 in0.0 mm 0.04 in1.0 mm
10:00 PM 43.9°F6.6°C 30.9°F-0.6°C 60% Calm Calm -- 30.07 in1018.3 mb - 0.00 in0.0 mm 0.04 in1.0 mm
11:00 PM 42.0°F5.6°C 31.5°F-0.3°C 66% Calm Calm -- 30.07 in1018.3 mb - 0.00 in0.0 mm 0.04 in1.0 mm